Time;durP1;ratioP1;P1;durP2;ratioP2;P2;SDS_P1;SDS_P2;PMS_P1;PMS_P2;Temp;Humidity;BMP_temperature;BMP_pressure;BME280_temperature;BME280_humidity;BME280_pressure;Samples;Min_cycle;Max_cycle;Signal;HPM_P1;HPM_P2
2023/03/23 00:00:00;;;;;;;15.23;10.77;;;;;;;24.78;35.35;99535.16;4360707;32;33356;-67
2023/03/23 00:02:27;;;;;;;18.08;11.18;;;;;;;24.78;35.35;99531.62;4348320;32;34764;-62
2023/03/23 00:04:54;;;;;;;18.05;11.35;;;;;;;24.76;35.36;99534.59;4373483;32;34790;-63
2023/03/23 00:07:27;;;;;;;14.70;11.07;;;;;;;24.76;35.36;99534.59;4360821;32;33560;-64
2023/03/23 00:09:54;;;;;;;17.10;11.27;;;;;;;24.75;35.37;99527.47;4360310;32;32939;-62
2023/03/23 00:12:34;;;;;;;17.58;10.93;;;;;;;24.72;35.39;99527.97;4348366;32;34084;-59
2023/03/23 00:15:01;;;;;;;16.98;11.70;;;;;;;24.73;35.46;99531.50;4349176;32;34432;-64
2023/03/23 00:17:28;;;;;;;16.35;11.05;;;;;;;24.71;35.47;99529.00;4348398;32;32839;-61
2023/03/23 00:19:55;;;;;;;15.75;10.80;;;;;;;24.69;35.52;99523.81;4348580;32;34219;-66
2023/03/23 00:22:24;;;;;;;18.35;11.32;;;;;;;24.69;35.52;99526.53;4348255;32;33866;-61
2023/03/23 00:24:51;;;;;;;17.40;11.10;;;;;;;24.68;35.64;99521.31;4360955;32;33883;-65
2023/03/23 00:27:18;;;;;;;18.02;10.90;;;;;;;24.67;35.71;99517.78;4360871;32;32506;-61
2023/03/23 00:29:47;;;;;;;15.77;11.50;;;;;;;24.66;35.76;99529.72;4348200;32;31893;-65
2023/03/23 00:32:14;;;;;;;15.73;10.95;;;;;;;24.65;35.74;99519.06;4360563;32;34701;-65
2023/03/23 00:34:42;;;;;;;16.05;10.65;;;;;;;24.64;35.72;99510.06;4348265;32;33603;-66
2023/03/23 00:37:09;;;;;;;16.50;10.88;;;;;;;24.63;35.66;99510.31;4360522;32;33584;-61
2023/03/23 00:39:37;;;;;;;17.17;10.77;;;;;;;24.63;35.66;99515.78;4360698;32;33128;-64
2023/03/23 00:42:03;;;;;;;15.82;10.60;;;;;;;24.61;35.69;99510.53;4360243;32;33379;-67
2023/03/23 00:44:31;;;;;;;15.77;9.95;;;;;;;24.61;35.77;99513.25;4348127;32;33084;-61
2023/03/23 00:46:58;;;;;;;16.15;10.45;;;;;;;24.59;35.84;99512.69;4360563;32;34532;-67
2023/03/23 00:49:25;;;;;;;15.02;10.55;;;;;;;24.60;35.91;99505.34;4348193;32;34128;-59
2023/03/23 00:51:52;;;;;;;19.30;10.60;;;;;;;24.57;35.90;99509.34;4360481;32;33881;-60
2023/03/23 00:54:20;;;;;;;14.90;10.07;;;;;;;24.57;36.02;99505.81;4360458;32;34618;-62
2023/03/23 00:56:48;;;;;;;15.05;10.73;;;;;;;24.57;36.14;99513.97;4348466;32;34514;-61
2023/03/23 00:59:14;;;;;;;16.35;10.70;;;;;;;24.56;36.08;99507.69;4348051;32;33371;-66
2023/03/23 01:01:41;;;;;;;18.58;10.85;;;;;;;24.56;36.15;99509.59;4347771;32;33510;-65
2023/03/23 01:04:08;;;;;;;14.02;10.18;;;;;;;24.55;36.27;99505.22;4346691;32;33753;-67
2023/03/23 01:06:38;;;;;;;13.48;9.75;;;;;;;24.54;36.35;99496.22;4345205;32;33612;-56
2023/03/23 01:09:10;;;;;;;14.40;9.73;;;;;;;24.56;36.23;99493.25;4348138;32;33310;-60
2023/03/23 01:11:37;;;;;;;15.07;9.73;;;;;;;24.56;36.17;99490.50;4360281;32;33853;-64
2023/03/23 01:14:05;;;;;;;14.07;9.63;;;;;;;24.55;36.13;99488.88;4360378;32;35193;-62
2023/03/23 01:16:31;;;;;;;14.35;10.07;;;;;;;24.54;36.12;99504.41;4360276;32;33459;-60
2023/03/23 01:18:58;;;;;;;13.90;9.55;;;;;;;24.53;36.09;99493.72;4360301;32;33482;-64
2023/03/23 01:21:24;;;;;;;15.07;9.95;;;;;;;24.52;36.11;99492.88;4346855;32;34212;-61
2023/03/23 01:23:51;;;;;;;14.70;9.88;;;;;;;24.53;36.11;99485.53;4348134;32;32750;-62
2023/03/23 01:26:22;;;;;;;15.30;9.65;;;;;;;24.52;36.24;99497.50;4360510;32;33358;-59
2023/03/23 01:28:49;;;;;;;14.65;9.93;;;;;;;24.52;36.24;99489.34;4347894;32;33515;-66
2023/03/23 01:31:17;;;;;;;15.85;10.27;;;;;;;24.51;36.37;99488.50;4347742;32;33773;-67
2023/03/23 01:33:44;;;;;;;16.05;9.65;;;;;;;24.50;36.53;99486.03;4347816;32;34877;-60
2023/03/23 01:36:15;;;;;;;14.85;9.45;;;;;;;24.48;36.58;99483.56;4347916;32;33522;-68
2023/03/23 01:38:43;;;;;;;14.45;9.75;;;;;;;24.48;36.58;99488.16;4348151;32;33206;-64
2023/03/23 01:41:09;;;;;;;14.23;9.88;;;;;;;24.46;36.59;99480.22;4360124;32;33899;-60
2023/03/23 01:43:36;;;;;;;14.57;10.10;;;;;;;24.47;36.62;99481.03;4347564;32;34779;-65
2023/03/23 01:46:03;;;;;;;14.20;9.45;;;;;;;24.45;36.65;99473.13;4347740;32;33317;-68
2023/03/23 01:48:32;;;;;;;13.52;9.25;;;;;;;24.43;36.63;99476.09;4360141;32;32896;-65
2023/03/23 01:51:04;;;;;;;14.20;9.95;;;;;;;24.43;36.68;99481.53;4347758;32;34603;-68
2023/03/23 01:53:37;;;;;;;13.73;9.13;;;;;;;24.43;36.64;99477.97;4347632;32;34645;-65
2023/03/23 01:56:05;;;;;;;13.48;9.38;;;;;;;24.43;36.74;99477.97;4323249;32;33827;-63
2023/03/23 01:58:33;;;;;;;13.75;9.18;;;;;;;24.41;36.75;99480.94;4345041;33;33535;-62
2023/03/23 02:01:02;;;;;;;14.38;9.75;;;;;;;24.40;36.78;99478.47;4332978;33;34574;-66
2023/03/23 02:03:29;;;;;;;14.57;8.95;;;;;;;24.39;36.78;99474.09;4332793;33;33088;-64
2023/03/23 02:05:58;;;;;;;16.62;10.32;;;;;;;24.38;36.78;99462.31;4345208;33;34138;-59
2023/03/23 02:08:27;;;;;;;15.07;10.02;;;;;;;24.39;36.80;99471.38;4357180;32;32368;-64
2023/03/23 02:10:54;;;;;;;13.48;9.52;;;;;;;24.37;36.79;99465.31;4357017;32;34039;-57
2023/03/23 02:13:21;;;;;;;13.07;9.05;;;;;;;24.38;36.79;99469.69;4332509;33;33064;-63
2023/03/23 02:16:22;;;;;;;12.63;9.07;;;;;;;24.37;36.81;99476.22;4344921;33;33374;-65
2023/03/23 02:19:24;;;;;;;13.23;9.10;;;;;;;24.37;36.81;99479.75;4357012;32;34191;-61
2023/03/23 02:21:56;;;;;;;13.85;8.88;;;;;;;24.35;36.87;99478.34;4332508;33;33153;-68
2023/03/23 02:24:51;;;;;;;13.38;9.40;;;;;;;24.34;36.85;99479.38;4344626;33;33039;-56
2023/03/23 02:27:48;;;;;;;15.27;9.30;;;;;;;24.34;36.84;99476.66;4357034;32;34210;-63
2023/03/23 02:30:42;;;;;;;14.05;9.25;;;;;;;24.33;36.89;99477.72;4357133;32;33297;-65
2023/03/23 02:33:36;;;;;;;14.05;9.15;;;;;;;24.31;36.92;99477.16;4357617;32;34645;-62
2023/03/23 02:36:18;;;;;;;13.55;9.25;;;;;;;24.30;36.91;99479.06;4346422;33;32586;-64
2023/03/23 02:38:54;;;;;;;12.68;8.90;;;;;;;24.28;36.98;99489.34;4346802;33;33862;-65
2023/03/23 02:41:22;;;;;;;15.55;9.38;;;;;;;24.27;37.02;99482.25;4358687;32;32520;-65
2023/03/23 02:43:49;;;;;;;13.62;9.50;;;;;;;24.26;37.00;99475.16;4346796;33;33802;-58
2023/03/23 02:46:16;;;;;;;14.38;9.10;;;;;;;24.26;36.99;99485.22;4358884;32;33836;-57
2023/03/23 02:48:42;;;;;;;14.20;9.05;;;;;;;24.25;36.99;99483.53;4346394;33;33960;-61
2023/03/23 02:51:09;;;;;;;13.52;9.25;;;;;;;24.26;37.00;99485.22;4334330;33;33273;-59
2023/03/23 02:53:37;;;;;;;13.93;8.95;;;;;;;24.25;36.98;99489.00;4334125;33;34739;-57
2023/03/23 02:56:04;;;;;;;13.40;8.88;;;;;;;24.26;36.96;99482.50;4334112;33;33835;-61
2023/03/23 02:58:31;;;;;;;13.93;8.32;;;;;;;24.24;36.98;99488.16;4345082;32;33856;-60
2023/03/23 03:00:58;;;;;;;15.30;9.32;;;;;;;24.24;36.96;99490.91;4349049;32;32876;-59
2023/03/23 03:03:27;;;;;;;12.90;8.80;;;;;;;24.25;36.98;99486.25;4348928;32;33934;-68
2023/03/23 03:06:17;;;;;;;15.38;8.82;;;;;;;24.24;37.00;99487.34;4336754;32;33449;-58
2023/03/23 03:08:55;;;;;;;15.98;9.30;;;;;;;24.22;37.02;99487.59;4360963;32;33248;-62
2023/03/23 03:11:25;;;;;;;16.48;9.02;;;;;;;24.25;36.98;99492.56;4349145;32;34094;-62
2023/03/23 03:13:53;;;;;;;13.10;9.15;;;;;;;24.23;36.99;99486.50;4361065;32;33972;-63
2023/03/23 03:16:26;;;;;;;12.48;8.68;;;;;;;24.22;37.01;99484.88;4348884;32;34682;-63
2023/03/23 03:19:32;;;;;;;14.00;8.73;;;;;;;24.22;37.05;99484.03;4361361;32;33825;-59
2023/03/23 03:21:58;;;;;;;13.38;8.23;;;;;;;24.22;37.00;99492.22;4360457;32;33424;-58
2023/03/23 03:24:27;;;;;;;11.52;8.25;;;;;;;24.19;37.02;99483.44;4349136;32;33805;-58
2023/03/23 03:26:57;;;;;;;13.95;9.10;;;;;;;24.17;37.03;99485.59;4348961;32;33706;-67
2023/03/23 03:29:26;;;;;;;13.10;8.60;;;;;;;24.17;37.05;99488.31;4361378;32;34776;-59
2023/03/23 03:31:55;;;;;;;11.20;8.30;;;;;;;24.16;37.08;99492.09;4348721;32;33446;-63
2023/03/23 03:34:23;;;;;;;12.88;8.15;;;;;;;24.16;37.08;99500.28;4349188;32;34565;-61
2023/03/23 03:36:51;;;;;;;16.02;8.25;;;;;;;24.15;37.13;99495.91;4349141;32;34454;-65
2023/03/23 03:39:20;;;;;;;13.93;9.20;;;;;;;24.14;37.19;99501.56;4348946;32;33831;-66
2023/03/23 03:41:47;;;;;;;12.18;8.30;;;;;;;24.13;37.25;99499.94;4349112;32;33397;-67
2023/03/23 03:44:14;;;;;;;13.40;8.77;;;;;;;24.11;37.27;99502.06;4348525;32;33619;-60
2023/03/23 03:46:41;;;;;;;13.10;7.95;;;;;;;24.11;37.25;99500.19;4336564;32;33522;-64
2023/03/23 03:49:09;;;;;;;13.68;8.73;;;;;;;24.09;37.32;99502.28;4348919;32;34028;-61
2023/03/23 03:51:35;;;;;;;12.73;7.93;;;;;;;24.08;37.35;99505.25;4349083;32;33369;-64
2023/03/23 03:54:03;;;;;;;14.38;8.77;;;;;;;24.09;37.32;99507.75;4360772;32;34627;-68
2023/03/23 03:56:31;;;;;;;16.87;9.90;;;;;;;24.11;37.32;99510.25;4348542;32;33378;-68
2023/03/23 03:58:59;;;;;;;12.60;8.02;;;;;;;24.09;37.29;99510.47;4348398;32;33945;-68
2023/03/23 04:01:26;;;;;;;17.83;8.38;;;;;;;24.09;37.26;99507.75;4360694;32;33538;-61
2023/03/23 04:03:52;;;;;;;11.15;7.22;;;;;;;24.10;37.28;99512.13;4348526;32;32722;-65
2023/03/23 04:06:20;;;;;;;11.60;7.93;;;;;;;24.09;37.32;99513.19;4360987;32;33707;-62
2023/03/23 04:08:47;;;;;;;12.90;7.80;;;;;;;24.07;37.34;99512.63;4360633;32;33639;-60
2023/03/23 04:11:14;;;;;;;12.90;8.35;;;;;;;24.08;37.33;99513.44;4336266;32;32752;-66
2023/03/23 04:13:41;;;;;;;12.23;8.10;;;;;;;24.09;37.31;99518.66;4360719;32;33860;-63
2023/03/23 04:16:08;;;;;;;12.75;7.97;;;;;;;24.07;37.35;99519.97;4360551;32;32606;-58
2023/03/23 04:18:35;;;;;;;13.75;7.95;;;;;;;24.05;37.37;99516.62;4348761;32;32951;-62
2023/03/23 04:21:03;;;;;;;12.05;8.05;;;;;;;24.05;37.37;99517.47;4348717;32;32445;-67
2023/03/23 04:23:31;;;;;;;12.00;7.70;;;;;;;24.05;37.33;99517.47;4360695;32;33916;-66
2023/03/23 04:25:59;;;;;;;14.75;7.57;;;;;;;24.05;37.30;99511.19;4360627;32;34388;-68
2023/03/23 04:28:27;;;;;;;12.30;7.95;;;;;;;24.05;37.32;99512.00;4360921;32;34005;-68
2023/03/23 04:30:55;;;;;;;11.73;7.70;;;;;;;24.04;37.31;99513.09;4360757;32;33466;-62
2023/03/23 04:33:26;;;;;;;13.48;7.60;;;;;;;24.03;37.34;99514.16;4348866;32;32881;-67
2023/03/23 04:35:53;;;;;;;13.02;8.63;;;;;;;24.04;37.36;99515.81;4360848;32;33961;-62
2023/03/23 04:38:20;;;;;;;12.23;7.68;;;;;;;24.05;37.35;99520.19;4348535;32;34196;-66
2023/03/23 04:40:48;;;;;;;11.88;7.47;;;;;;;24.04;37.30;99518.53;4348592;32;33384;-60
2023/03/23 04:43:14;;;;;;;14.98;7.55;;;;;;;24.04;37.34;99514.97;4360752;32;34630;-64
2023/03/23 04:45:45;;;;;;;11.30;7.55;;;;;;;24.02;37.39;99507.06;4360612;32;33537;-60
2023/03/23 04:48:11;;;;;;;13.70;8.23;;;;;;;24.03;37.38;99511.44;4360817;32;33804;-66
2023/03/23 04:50:39;;;;;;;12.25;7.70;;;;;;;24.04;37.37;99512.25;4348238;32;32358;-60
2023/03/23 04:53:06;;;;;;;11.25;7.65;;;;;;;24.02;37.43;99514.41;4347905;32;32904;-67
2023/03/23 04:55:35;;;;;;;10.98;7.47;;;;;;;24.02;37.45;99517.12;4347635;32;33137;-60
2023/03/23 04:58:06;;;;;;;11.18;7.43;;;;;;;24.02;37.44;99509.78;4347672;32;33128;-59
2023/03/23 05:00:33;;;;;;;12.45;6.95;;;;;;;24.03;37.42;99518.78;4335901;32;32762;-67
2023/03/23 05:03:01;;;;;;;17.33;7.35;;;;;;;24.02;37.35;99517.12;4348403;32;33102;-63
2023/03/23 05:05:30;;;;;;;11.75;7.35;;;;;;;24.03;37.44;99526.97;4348379;32;33997;-63
2023/03/23 05:07:57;;;;;;;14.82;7.28;;;;;;;24.02;37.50;99515.22;4348583;32;34832;-59
2023/03/23 05:10:24;;;;;;;15.27;7.55;;;;;;;24.03;37.48;99525.06;4348328;32;33079;-68
2023/03/23 05:12:52;;;;;;;16.52;8.02;;;;;;;24.02;37.42;99523.41;4361509;32;33832;-58
2023/03/23 05:15:19;;;;;;;18.02;8.10;;;;;;;24.00;37.41;99528.25;4359864;32;33698;-59
2023/03/23 05:17:48;;;;;;;14.87;7.00;;;;;;;24.00;37.41;99530.97;4347832;32;33720;-60
2023/03/23 05:20:18;;;;;;;11.25;6.60;;;;;;;24.00;37.43;99530.16;4359966;32;33127;-64
2023/03/23 05:22:44;;;;;;;13.93;8.30;;;;;;;23.99;37.43;99528.50;4348234;32;34296;-58
2023/03/23 05:25:11;;;;;;;16.87;7.45;;;;;;;23.99;37.37;99528.50;4360050;32;34699;-65
2023/03/23 05:27:38;;;;;;;14.85;8.43;;;;;;;23.99;37.36;99532.03;4361000;32;33947;-60
2023/03/23 05:30:09;;;;;;;21.40;7.28;;;;;;;23.96;37.33;99529.78;4360499;32;33727;-58
2023/03/23 05:32:37;;;;;;;19.35;8.05;;;;;;;23.96;37.25;99527.06;4334380;32;33748;-60
2023/03/23 05:35:05;;;;;;;12.13;7.47;;;;;;;23.96;37.10;99531.69;4346290;32;33569;-57
2023/03/23 05:37:32;;;;;;;18.52;7.30;;;;;;;23.94;36.87;99534.66;4346121;32;33833;-62
2023/03/23 05:40:04;;;;;;;15.73;7.40;;;;;;;23.93;36.71;99530.28;4358524;32;33964;-64
2023/03/23 05:42:33;;;;;;;14.00;7.57;;;;;;;23.91;36.61;99518.75;4346623;32;33947;-70
2023/03/23 05:45:01;;;;;;;13.02;7.53;;;;;;;23.91;36.50;99522.31;4358135;32;33716;-65
2023/03/23 05:47:27;;;;;;;12.60;7.47;;;;;;;23.88;36.48;99516.53;4359691;32;34523;-70
2023/03/23 05:49:54;;;;;;;14.02;7.20;;;;;;;23.87;36.41;99510.22;4347675;32;33430;-68
2023/03/23 05:52:23;;;;;;;13.23;7.30;;;;;;;23.85;36.38;99515.09;4347925;32;33651;-69
2023/03/23 05:54:50;;;;;;;11.75;7.10;;;;;;;23.83;36.38;99517.25;4360153;32;34366;-70
2023/03/23 05:57:18;;;;;;;11.88;7.45;;;;;;;23.82;36.33;99521.00;4359007;32;33838;-62
2023/03/23 05:59:44;;;;;;;12.45;7.15;;;;;;;23.83;36.30;99510.97;4348010;32;33304;-66
2023/03/23 06:02:13;;;;;;;12.00;7.00;;;;;;;23.81;36.26;99510.34;4347545;32;32464;-69
2023/03/23 06:04:41;;;;;;;12.35;7.22;;;;;;;23.81;36.22;99523.97;4359898;32;34057;-57
2023/03/23 06:07:12;;;;;;;11.43;6.87;;;;;;;23.80;36.21;99520.44;4360551;32;33839;-65
2023/03/23 06:09:40;;;;;;;12.40;7.10;;;;;;;23.79;36.19;99516.03;4352289;32;33445;-64
2023/03/23 06:12:09;;;;;;;9.32;5.90;;;;;;;23.78;36.17;99514.41;4364719;32;34491;-63
2023/03/23 06:14:36;;;;;;;12.07;7.32;;;;;;;23.77;36.14;99520.06;4364899;32;33917;-66
2023/03/23 06:17:03;;;;;;;12.10;6.82;;;;;;;23.76;36.12;99518.41;4364957;32;33985;-63
2023/03/23 06:19:30;;;;;;;11.40;6.90;;;;;;;23.75;36.07;99522.19;4340060;32;32401;-66
2023/03/23 06:21:57;;;;;;;10.32;6.50;;;;;;;23.74;36.07;99520.56;4364779;32;33441;-66
2023/03/23 06:24:23;;;;;;;10.95;6.20;;;;;;;23.73;36.06;99513.41;4366013;32;34699;-67
2023/03/23 06:26:50;;;;;;;9.98;6.75;;;;;;;23.73;36.01;99513.41;4364626;32;34591;-61
2023/03/23 06:29:17;;;;;;;11.95;6.30;;;;;;;23.72;36.01;99515.31;4352441;32;33539;-63
2023/03/23 06:31:46;;;;;;;11.52;7.05;;;;;;;23.72;36.00;99515.31;4352165;32;32889;-69
2023/03/23 06:34:13;;;;;;;11.73;6.97;;;;;;;23.71;35.97;99510.12;4352064;32;34706;-68
2023/03/23 06:36:43;;;;;;;11.73;6.45;;;;;;;23.70;35.96;99503.84;4364668;32;33683;-59
2023/03/23 06:39:10;;;;;;;9.75;6.80;;;;;;;23.70;35.96;99508.47;4364695;32;32956;-61
2023/03/23 06:41:41;;;;;;;9.90;6.10;;;;;;;23.69;35.95;99513.09;4364696;32;34015;-60
2023/03/23 06:44:08;;;;;;;8.65;6.30;;;;;;;23.67;35.92;99516.03;4352266;32;34098;-67
2023/03/23 06:46:35;;;;;;;11.15;6.40;;;;;;;23.66;35.91;99519.00;4352106;32;33905;-66
2023/03/23 06:49:08;;;;;;;13.07;7.10;;;;;;;23.66;35.90;99519.81;4341216;32;33253;-57
2023/03/23 06:51:35;;;;;;;9.02;6.18;;;;;;;23.66;35.89;99521.72;4352198;32;34625;-66
2023/03/23 06:54:02;;;;;;;10.35;6.30;;;;;;;23.64;35.89;99521.97;4351750;32;33949;-69
2023/03/23 06:56:30;;;;;;;9.43;6.05;;;;;;;23.66;35.87;99527.16;4364384;32;33499;-69
2023/03/23 06:58:57;;;;;;;13.05;7.32;;;;;;;23.65;35.83;99526.34;4351657;32;33395;-59
2023/03/23 07:01:24;;;;;;;11.07;6.87;;;;;;;23.66;35.82;99524.44;4364097;32;33910;-60
2023/03/23 07:03:51;;;;;;;10.75;6.32;;;;;;;23.64;35.81;99524.69;4364341;32;33977;-68
2023/03/23 07:06:19;;;;;;;9.93;6.15;;;;;;;23.65;35.79;99537.22;4365511;32;33637;-64
2023/03/23 07:08:46;;;;;;;12.23;6.75;;;;;;;23.65;35.77;99530.97;4364270;32;33392;-65
2023/03/23 07:11:14;;;;;;;9.50;6.37;;;;;;;23.64;35.78;99535.56;4339760;32;34633;-64
2023/03/23 07:13:40;;;;;;;9.85;6.37;;;;;;;23.64;35.75;99524.69;4363877;32;34883;-58
2023/03/23 07:16:07;;;;;;;13.13;6.82;;;;;;;23.65;35.76;99529.06;4339481;32;33254;-62
2023/03/23 07:18:34;;;;;;;9.95;6.68;;;;;;;23.65;35.75;99534.50;4351201;32;33389;-66
2023/03/23 07:21:04;;;;;;;10.35;6.45;;;;;;;23.65;35.72;99537.22;4348932;32;34319;-67
2023/03/23 07:23:31;;;;;;;11.63;6.40;;;;;;;23.66;35.72;99538.06;4361201;32;34198;-61
2023/03/23 07:25:58;;;;;;;8.98;5.90;;;;;;;23.66;35.71;99530.72;4324725;32;33291;-59
2023/03/23 07:28:27;;;;;;;10.50;6.20;;;;;;;23.66;35.69;99541.59;4349451;32;33236;-58
2023/03/23 07:30:54;;;;;;;12.90;6.25;;;;;;;23.70;35.65;99535.69;4348576;32;33091;-62
2023/03/23 07:33:22;;;;;;;10.48;6.03;;;;;;;23.68;35.64;99535.91;4348729;32;33086;-60
2023/03/23 07:35:48;;;;;;;9.45;6.15;;;;;;;23.68;35.63;99534.00;4348947;32;34524;-63
2023/03/23 07:38:15;;;;;;;10.13;6.55;;;;;;;23.69;35.61;99543.03;4359900;32;33134;-57
2023/03/23 07:40:43;;;;;;;10.32;6.62;;;;;;;23.70;35.58;99539.25;4360640;32;33738;-65
2023/03/23 07:43:11;;;;;;;10.18;6.07;;;;;;;23.70;35.57;99547.44;4361151;32;33864;-57
2023/03/23 07:45:38;;;;;;;10.00;6.18;;;;;;;23.71;35.54;99553.69;4361024;32;34537;-64
2023/03/23 07:48:06;;;;;;;9.15;5.50;;;;;;;23.71;35.55;99548.25;4348733;32;34236;-64
2023/03/23 07:50:35;;;;;;;9.43;6.00;;;;;;;23.72;35.54;99549.91;4348866;32;33631;-60
2023/03/23 07:53:02;;;;;;;10.20;6.00;;;;;;;23.72;35.55;99548.00;4348742;32;34008;-56
2023/03/23 07:55:29;;;;;;;9.60;6.20;;;;;;;23.73;35.58;99543.37;4361155;32;32988;-68
2023/03/23 07:57:56;;;;;;;9.20;5.35;;;;;;;23.73;35.64;99552.37;4336512;32;32126;-67
2023/03/23 08:00:24;;;;;;;10.32;5.87;;;;;;;23.74;35.67;99555.97;4360979;32;33805;-58
2023/03/23 08:02:56;;;;;;;8.98;5.05;;;;;;;23.74;35.72;99555.97;4348845;32;33545;-61
2023/03/23 08:05:25;;;;;;;9.52;5.85;;;;;;;23.75;35.74;99552.16;4361214;32;33814;-68
2023/03/23 08:07:54;;;;;;;9.75;5.95;;;;;;;23.77;35.75;99555.47;4348564;32;33564;-68
2023/03/23 08:10:21;;;;;;;9.73;5.62;;;;;;;23.77;35.79;99555.47;4361053;32;33824;-60
2023/03/23 08:12:51;;;;;;;9.35;5.62;;;;;;;23.77;35.86;99558.19;4336504;32;33837;-69
2023/03/23 08:15:19;;;;;;;9.77;5.35;;;;;;;23.77;35.85;99559.03;4348660;32;33434;-61
2023/03/23 08:17:45;;;;;;;8.30;5.20;;;;;;;23.78;35.88;99559.84;4348478;32;33426;-63
2023/03/23 08:20:13;;;;;;;9.00;5.97;;;;;;;23.79;35.92;99553.38;4348695;32;34717;-58
2023/03/23 08:22:41;;;;;;;10.18;6.05;;;;;;;23.79;35.95;99564.25;4336372;32;34003;-60
2023/03/23 08:25:08;;;;;;;9.73;5.20;;;;;;;23.79;35.96;99566.97;4348681;32;33790;-57
2023/03/23 08:27:35;;;;;;;8.65;4.82;;;;;;;23.78;36.00;99560.72;4336325;32;33449;-64
2023/03/23 08:30:07;;;;;;;8.68;5.62;;;;;;;23.80;35.99;99563.19;4348582;32;33629;-66
2023/03/23 08:32:36;;;;;;;9.32;5.80;;;;;;;23.82;35.96;99566.50;4337062;32;33025;-65
2023/03/23 08:35:03;;;;;;;8.50;5.03;;;;;;;23.80;35.94;99565.91;4348426;32;34244;-59
2023/03/23 08:37:30;;;;;;;7.32;4.93;;;;;;;23.82;35.94;99571.94;4348688;32;34121;-65
2023/03/23 08:39:57;;;;;;;9.00;5.60;;;;;;;23.82;35.93;99571.94;4360890;32;34647;-66
2023/03/23 08:42:24;;;;;;;8.43;5.35;;;;;;;23.81;35.94;99573.84;4360637;32;33778;-59
2023/03/23 08:44:51;;;;;;;8.35;5.15;;;;;;;23.81;35.94;99576.56;4348609;32;33931;-58
2023/03/23 08:47:18;;;;;;;11.40;5.30;;;;;;;23.78;36.01;99573.47;4360726;32;33441;-66
2023/03/23 08:49:45;;;;;;;10.45;5.47;;;;;;;23.79;36.00;99569.72;4360604;32;34602;-58
2023/03/23 08:52:13;;;;;;;9.07;5.37;;;;;;;23.80;35.96;99572.19;4360766;32;33990;-66
2023/03/23 08:54:46;;;;;;;10.48;5.62;;;;;;;23.80;35.94;99572.19;4360462;32;34635;-57
2023/03/23 08:57:14;;;;;;;8.95;5.30;;;;;;;23.81;35.91;99548.50;4360416;32;34757;-52
2023/03/23 08:59:42;;;;;;;8.27;4.93;;;;;;;23.80;35.90;99553.13;4360575;32;33953;-60
2023/03/23 09:02:13;;;;;;;7.60;4.80;;;;;;;23.79;35.90;99551.47;4360672;32;34018;-57
2023/03/23 09:04:43;;;;;;;7.68;4.62;;;;;;;23.78;35.92;99574.34;4360353;32;33627;-62
2023/03/23 09:07:11;;;;;;;9.48;4.97;;;;;;;23.79;35.87;99551.47;4336468;32;33374;-60
2023/03/23 09:09:41;;;;;;;8.68;5.07;;;;;;;23.78;35.84;99551.69;4348269;32;33778;-59
2023/03/23 09:12:08;;;;;;;9.00;4.85;;;;;;;23.77;35.83;99542.69;4348408;32;33574;-64
2023/03/23 09:14:37;;;;;;;8.18;4.70;;;;;;;23.77;35.82;99544.56;4360476;32;33850;-59
2023/03/23 09:17:05;;;;;;;7.85;4.70;;;;;;;23.75;35.81;99552.16;4348089;32;32401;-60
2023/03/23 09:19:34;;;;;;;7.80;5.20;;;;;;;23.77;35.74;99544.56;4360372;32;33945;-62
2023/03/23 09:22:01;;;;;;;8.40;4.78;;;;;;;23.75;35.72;99542.09;4348270;32;33985;-61
2023/03/23 09:24:27;;;;;;;6.95;4.53;;;;;;;23.76;35.70;99546.47;4323659;32;32499;-62
2023/03/23 09:26:55;;;;;;;9.35;5.22;;;;;;;23.76;35.67;99562.00;4360311;32;34260;-62
2023/03/23 09:29:22;;;;;;;8.90;5.45;;;;;;;23.75;35.61;99563.91;4336127;32;34220;-61
2023/03/23 09:31:48;;;;;;;10.20;5.47;;;;;;;23.74;35.18;99564.13;4360262;32;33681;-61
2023/03/23 09:34:16;;;;;;;9.40;5.60;;;;;;;23.73;35.21;99557.84;4335764;32;33554;-61
2023/03/23 09:36:43;;;;;;;10.70;6.40;;;;;;;23.73;34.64;99557.84;4347921;32;33802;-61
2023/03/23 09:39:11;;;;;;;12.80;7.07;;;;;;;23.71;34.33;99561.88;4335627;32;33844;-70
2023/03/23 09:42:12;;;;;;;12.73;6.65;;;;;;;23.69;34.06;99551.22;4347839;32;34396;-62
2023/03/23 09:45:16;;;;;;;11.57;7.03;;;;;;;23.70;33.67;99554.78;4360038;32;33879;-62
2023/03/23 09:48:17;;;;;;;11.15;6.70;;;;;;;23.66;33.48;99547.06;4349212;32;32652;-65
2023/03/23 09:50:46;;;;;;;10.02;6.75;;;;;;;23.63;33.32;99547.47;4335592;32;33200;-62
2023/03/23 09:53:20;;;;;;;11.43;6.85;;;;;;;23.59;33.15;99540.84;4347640;32;34754;-67
2023/03/23 09:55:48;;;;;;;12.48;7.03;;;;;;;23.59;33.03;99540.00;4347907;32;33826;-62
2023/03/23 09:58:23;;;;;;;12.23;6.85;;;;;;;23.58;32.96;99541.06;4347793;32;33557;-68
2023/03/23 10:01:26;;;;;;;9.15;6.37;;;;;;;23.55;32.85;99528.78;4347709;32;33595;-63
2023/03/23 10:04:01;;;;;;;8.85;6.60;;;;;;;23.59;32.26;99535.37;4342207;32;34567;-62
2023/03/23 10:06:28;;;;;;;10.07;6.30;;;;;;;23.56;31.88;99540.50;4335385;32;33823;-61
2023/03/23 10:08:57;;;;;;;8.48;6.15;;;;;;;23.53;31.86;99539.06;4359618;32;33362;-62
2023/03/23 10:11:41;;;;;;;10.07;5.70;;;;;;;23.53;32.16;99538.22;4335385;32;32824;-63
2023/03/23 10:14:29;;;;;;;9.07;5.60;;;;;;;23.55;32.50;99538.81;4347809;32;33470;-63
2023/03/23 10:17:00;;;;;;;9.30;5.40;;;;;;;23.54;32.71;99521.66;4344863;33;34229;-63
2023/03/23 10:19:27;;;;;;;9.07;5.40;;;;;;;23.53;32.88;99522.72;4334365;32;33518;-64
2023/03/23 10:21:58;;;;;;;7.97;5.45;;;;;;;23.53;32.99;99511.00;4359607;32;33621;-64
2023/03/23 10:24:29;;;;;;;8.52;5.45;;;;;;;23.54;33.07;99509.94;4360843;32;33718;-72
2023/03/23 10:26:58;;;;;;;8.80;5.57;;;;;;;23.56;33.06;99510.53;4374662;32;33607;-63
2023/03/23 10:29:28;;;;;;;8.95;5.80;;;;;;;23.56;32.85;99507.81;4374509;32;32948;-65
2023/03/23 10:32:08;;;;;;;8.07;5.10;;;;;;;23.56;32.86;99499.66;4374345;32;33810;-69
2023/03/23 10:34:54;;;;;;;7.65;4.60;;;;;;;23.57;32.75;99490.41;4347833;32;33063;-62
2023/03/23 10:37:26;;;;;;;10.20;5.32;;;;;;;23.56;32.93;99481.41;4359627;32;34301;-69
2023/03/23 10:39:58;;;;;;;9.90;5.00;;;;;;;23.57;33.00;99484.97;4359903;32;33930;-61
2023/03/23 10:42:35;;;;;;;13.50;5.80;;;;;;;23.56;33.05;99483.31;4360468;32;33580;-67
2023/03/23 10:45:15;;;;;;;9.45;4.78;;;;;;;23.57;33.06;99482.22;4361490;32;33623;-61
2023/03/23 10:47:44;;;;;;;8.37;4.50;;;;;;;23.57;33.09;99477.63;4373477;32;34263;-61
2023/03/23 10:50:15;;;;;;;10.05;4.93;;;;;;;23.57;33.17;99484.97;4361949;32;32996;-65
2023/03/23 10:52:42;;;;;;;9.30;4.68;;;;;;;23.56;33.18;99478.69;4361738;32;32931;-68
2023/03/23 10:55:13;;;;;;;8.52;5.07;;;;;;;23.56;33.23;99483.31;4362402;32;34676;-62
2023/03/23 10:57:42;;;;;;;7.10;4.35;;;;;;;23.56;33.29;99478.69;4363698;32;33020;-60
2023/03/23 11:00:26;;;;;;;9.77;4.05;;;;;;;23.56;33.32;99480.59;4361182;32;87328;-61
2023/03/23 11:03:05;;;;;;;8.20;4.30;;;;;;;23.56;33.37;99484.13;4364179;32;33923;-69
2023/03/23 11:05:43;;;;;;;7.43;4.22;;;;;;;23.55;33.43;99487.06;4363783;32;34734;-60
2023/03/23 11:08:15;;;;;;;7.65;4.20;;;;;;;23.55;33.49;99487.06;4363907;32;34588;-68
2023/03/23 11:11:11;;;;;;;7.50;4.32;;;;;;;23.54;33.54;99486.25;4363930;32;34155;-70
2023/03/23 11:13:45;;;;;;;7.45;4.12;;;;;;;23.54;33.58;99477.25;4360599;32;33251;-61
2023/03/23 11:16:22;;;;;;;8.50;4.03;;;;;;;23.52;33.65;99469.31;4376120;32;33177;-61
2023/03/23 11:18:49;;;;;;;8.75;4.20;;;;;;;23.53;33.67;99476.41;4376073;32;33923;-60
2023/03/23 11:21:16;;;;;;;7.68;4.20;;;;;;;23.53;33.71;99470.97;4376391;32;32376;-63
2023/03/23 11:23:47;;;;;;;6.43;3.78;;;;;;;23.53;33.73;99459.25;4351368;32;33335;-60
2023/03/23 11:26:17;;;;;;;7.70;4.28;;;;;;;23.54;33.76;99452.75;4364225;32;33457;-61
2023/03/23 11:28:44;;;;;;;;;;;;;;;23.54;33.76;99450.84;4364059;32;32807;-60
2023/03/23 11:31:11;;;;;;;7.30;4.28;;;;;;;23.60;33.69;99455.38;4363438;32;32089;-63
2023/03/23 11:33:42;;;;;;;7.00;3.85;;;;;;;23.53;33.82;99446.47;4363668;32;33454;-63
2023/03/23 11:36:08;;;;;;;7.32;4.22;;;;;;;23.50;33.90;99452.41;4363950;32;33660;-60
2023/03/23 11:38:35;;;;;;;6.43;3.62;;;;;;;23.51;33.94;99461.41;4363600;32;34468;-61